sensor_id;sensor_type;location;lat;lon;timestamp;temperature;humidity
71047;SHT31;58703;48.978;8.982;2022-11-28T00:03:47;4.68;86.65
71047;SHT31;58703;48.978;8.982;2022-11-28T00:06:14;4.68;86.91
71047;SHT31;58703;48.978;8.982;2022-11-28T00:08:40;4.68;87.27
71047;SHT31;58703;48.978;8.982;2022-11-28T00:11:07;4.69;86.99
71047;SHT31;58703;48.978;8.982;2022-11-28T00:13:34;4.71;86.99
71047;SHT31;58703;48.978;8.982;2022-11-28T00:16:02;4.72;86.88
71047;SHT31;58703;48.978;8.982;2022-11-28T00:18:28;4.74;86.33
71047;SHT31;58703;48.978;8.982;2022-11-28T00:21:09;4.72;86.57
71047;SHT31;58703;48.978;8.982;2022-11-28T00:23:35;4.75;86.29
71047;SHT31;58703;48.978;8.982;2022-11-28T00:26:10;4.75;86.08
71047;SHT31;58703;48.978;8.982;2022-11-28T00:28:37;4.71;86.41
71047;SHT31;58703;48.978;8.982;2022-11-28T00:31:03;4.69;86.04
71047;SHT31;58703;48.978;8.982;2022-11-28T00:33:30;4.68;86.54
71047;SHT31;58703;48.978;8.982;2022-11-28T00:36:01;4.67;87.10
71047;SHT31;58703;48.978;8.982;2022-11-28T00:38:28;4.62;87.02
71047;SHT31;58703;48.978;8.982;2022-11-28T00:43:27;4.62;87.55
71047;SHT31;58703;48.978;8.982;2022-11-28T00:45:53;4.56;87.24
71047;SHT31;58703;48.978;8.982;2022-11-28T00:48:19;4.51;87.47
71047;SHT31;58703;48.978;8.982;2022-11-28T00:50:45;4.54;87.19
71047;SHT31;58703;48.978;8.982;2022-11-28T00:53:11;4.51;87.27
71047;SHT31;58703;48.978;8.982;2022-11-28T00:55:38;4.51;87.34
71047;SHT31;58703;48.978;8.982;2022-11-28T00:58:03;4.48;87.26
71047;SHT31;58703;48.978;8.982;2022-11-28T01:00:29;4.44;87.62
71047;SHT31;58703;48.978;8.982;2022-11-28T01:02:55;4.44;87.54
71047;SHT31;58703;48.978;8.982;2022-11-28T01:05:21;4.40;87.75
71047;SHT31;58703;48.978;8.982;2022-11-28T01:07:48;4.37;87.81
71047;SHT31;58703;48.978;8.982;2022-11-28T01:10:14;4.33;88.22
71047;SHT31;58703;48.978;8.982;2022-11-28T01:12:40;4.32;88.15
71047;SHT31;58703;48.978;8.982;2022-11-28T01:15:09;4.34;88.41
71047;SHT31;58703;48.978;8.982;2022-11-28T01:17:35;4.30;88.03
71047;SHT31;58703;48.978;8.982;2022-11-28T01:20:07;4.29;88.10
71047;SHT31;58703;48.978;8.982;2022-11-28T01:22:33;4.30;88.48
71047;SHT31;58703;48.978;8.982;2022-11-28T01:25:00;4.29;88.65
71047;SHT31;58703;48.978;8.982;2022-11-28T01:27:26;4.29;88.39
71047;SHT31;58703;48.978;8.982;2022-11-28T01:29:51;4.27;88.57
71047;SHT31;58703;48.978;8.982;2022-11-28T01:32:17;4.17;89.08
71047;SHT31;58703;48.978;8.982;2022-11-28T01:34:42;4.17;89.07
71047;SHT31;58703;48.978;8.982;2022-11-28T01:37:08;4.09;89.19
71047;SHT31;58703;48.978;8.982;2022-11-28T01:39:36;4.06;89.60
71047;SHT31;58703;48.978;8.982;2022-11-28T01:42:02;3.99;89.61
71047;SHT31;58703;48.978;8.982;2022-11-28T01:46:54;3.96;89.45
71047;SHT31;58703;48.978;8.982;2022-11-28T01:49:24;4.10;89.12
71047;SHT31;58703;48.978;8.982;2022-11-28T01:52:14;4.13;89.41
71047;SHT31;58703;48.978;8.982;2022-11-28T01:54:43;4.23;88.63
71047;SHT31;58703;48.978;8.982;2022-11-28T01:57:14;4.27;88.02
71047;SHT31;58703;48.978;8.982;2022-11-28T01:59:46;4.32;87.50
71047;SHT31;58703;48.978;8.982;2022-11-28T02:02:20;4.33;87.59
71047;SHT31;58703;48.978;8.982;2022-11-28T02:04:49;4.37;87.73
71047;SHT31;58703;48.978;8.982;2022-11-28T02:07:14;4.34;87.55
71047;SHT31;58703;48.978;8.982;2022-11-28T02:09:40;4.40;87.36
71047;SHT31;58703;48.978;8.982;2022-11-28T02:18:08;4.36;87.28
71047;SHT31;58703;48.978;8.982;2022-11-28T02:23:28;4.41;86.91
71047;SHT31;58703;48.978;8.982;2022-11-28T02:38:19;4.34;87.71
71047;SHT31;58703;48.978;8.982;2022-11-28T02:40:59;4.43;87.70
71047;SHT31;58703;48.978;8.982;2022-11-28T02:46:48;4.46;87.68
71047;SHT31;58703;48.978;8.982;2022-11-28T02:49:31;4.50;87.46
71047;SHT31;58703;48.978;8.982;2022-11-28T02:52:17;4.47;87.75
71047;SHT31;58703;48.978;8.982;2022-11-28T02:54:46;4.44;87.58
71047;SHT31;58703;48.978;8.982;2022-11-28T02:57:12;4.41;87.46
71047;SHT31;58703;48.978;8.982;2022-11-28T03:02:15;4.43;87.64
71047;SHT31;58703;48.978;8.982;2022-11-28T03:10:11;4.46;86.90
71047;SHT31;58703;48.978;8.982;2022-11-28T03:12:55;4.51;86.79
71047;SHT31;58703;48.978;8.982;2022-11-28T03:16:21;4.53;86.80
71047;SHT31;58703;48.978;8.982;2022-11-28T03:19:05;4.47;87.19
71047;SHT31;58703;48.978;8.982;2022-11-28T03:21:43;4.44;87.44
71047;SHT31;58703;48.978;8.982;2022-11-28T03:27:30;4.60;86.04
71047;SHT31;58703;48.978;8.982;2022-11-28T03:30:05;4.60;86.61
71047;SHT31;58703;48.978;8.982;2022-11-28T03:32:36;4.54;87.22
71047;SHT31;58703;48.978;8.982;2022-11-28T03:35:24;4.51;87.34
71047;SHT31;58703;48.978;8.982;2022-11-28T03:37:55;4.48;87.75
71047;SHT31;58703;48.978;8.982;2022-11-28T03:40:25;4.38;87.47
71047;SHT31;58703;48.978;8.982;2022-11-28T03:43:04;4.36;88.27
71047;SHT31;58703;48.978;8.982;2022-11-28T03:45:37;4.30;88.09
71047;SHT31;58703;48.978;8.982;2022-11-28T03:48:15;4.30;88.27
71047;SHT31;58703;48.978;8.982;2022-11-28T03:50:52;4.23;88.35
71047;SHT31;58703;48.978;8.982;2022-11-28T03:53:26;4.05;88.90
71047;SHT31;58703;48.978;8.982;2022-11-28T03:58:55;4.18;88.95
71047;SHT31;58703;48.978;8.982;2022-11-28T04:01:33;4.24;88.38
71047;SHT31;58703;48.978;8.982;2022-11-28T04:04:25;4.26;88.58
71047;SHT31;58703;48.978;8.982;2022-11-28T04:06:57;4.36;87.97
71047;SHT31;58703;48.978;8.982;2022-11-28T04:09:38;4.41;87.36
71047;SHT31;58703;48.978;8.982;2022-11-28T04:12:12;4.43;87.65
71047;SHT31;58703;48.978;8.982;2022-11-28T04:14:44;4.37;88.22
71047;SHT31;58703;48.978;8.982;2022-11-28T04:17:34;4.40;87.46
71047;SHT31;58703;48.978;8.982;2022-11-28T04:20:37;4.34;88.00
71047;SHT31;58703;48.978;8.982;2022-11-28T04:23:10;4.27;88.47
71047;SHT31;58703;48.978;8.982;2022-11-28T04:25:41;4.33;88.26
71047;SHT31;58703;48.978;8.982;2022-11-28T04:28:16;4.24;88.42
71047;SHT31;58703;48.978;8.982;2022-11-28T04:30:43;4.24;88.63
71047;SHT31;58703;48.978;8.982;2022-11-28T04:33:12;4.27;88.66
71047;SHT31;58703;48.978;8.982;2022-11-28T04:35:43;4.24;88.18
71047;SHT31;58703;48.978;8.982;2022-11-28T04:38:10;4.09;88.94
71047;SHT31;58703;48.978;8.982;2022-11-28T04:40:42;3.93;89.22
71047;SHT31;58703;48.978;8.982;2022-11-28T04:43:15;3.82;90.05
71047;SHT31;58703;48.978;8.982;2022-11-28T04:45:54;3.85;90.39
71047;SHT31;58703;48.978;8.982;2022-11-28T04:48:20;3.83;90.78
71047;SHT31;58703;48.978;8.982;2022-11-28T04:51:00;3.73;91.74
71047;SHT31;58703;48.978;8.982;2022-11-28T04:53:46;3.68;93.00
71047;SHT31;58703;48.978;8.982;2022-11-28T04:56:23;3.65;92.58
71047;SHT31;58703;48.978;8.982;2022-11-28T04:58:50;3.63;93.08
71047;SHT31;58703;48.978;8.982;2022-11-28T05:01:28;3.66;92.55
71047;SHT31;58703;48.978;8.982;2022-11-28T05:03:55;3.66;93.56
71047;SHT31;58703;48.978;8.982;2022-11-28T05:06:31;3.69;92.91
71047;SHT31;58703;48.978;8.982;2022-11-28T05:08:57;3.51;92.88
71047;SHT31;58703;48.978;8.982;2022-11-28T05:11:23;3.31;93.64
71047;SHT31;58703;48.978;8.982;2022-11-28T05:13:49;3.30;93.58
71047;SHT31;58703;48.978;8.982;2022-11-28T05:16:15;3.34;93.04
71047;SHT31;58703;48.978;8.982;2022-11-28T05:18:42;3.34;92.91
71047;SHT31;58703;48.978;8.982;2022-11-28T05:21:08;3.32;92.97
71047;SHT31;58703;48.978;8.982;2022-11-28T05:23:41;3.36;92.99
71047;SHT31;58703;48.978;8.982;2022-11-28T05:26:12;3.34;93.41
71047;SHT31;58703;48.978;8.982;2022-11-28T05:28:38;3.35;93.73
71047;SHT31;58703;48.978;8.982;2022-11-28T05:31:06;3.32;94.00
71047;SHT31;58703;48.978;8.982;2022-11-28T05:33:32;3.35;93.58
71047;SHT31;58703;48.978;8.982;2022-11-28T05:36:06;3.36;93.71
71047;SHT31;58703;48.978;8.982;2022-11-28T05:38:33;3.30;94.06
71047;SHT31;58703;48.978;8.982;2022-11-28T05:41:00;3.14;94.42
71047;SHT31;58703;48.978;8.982;2022-11-28T05:43:28;3.00;94.99
71047;SHT31;58703;48.978;8.982;2022-11-28T05:45:54;2.93;95.42
71047;SHT31;58703;48.978;8.982;2022-11-28T05:48:20;3.01;95.71
71047;SHT31;58703;48.978;8.982;2022-11-28T05:50:46;3.03;95.13
71047;SHT31;58703;48.978;8.982;2022-11-28T05:53:16;3.00;95.22
71047;SHT31;58703;48.978;8.982;2022-11-28T05:55:44;3.01;95.35
71047;SHT31;58703;48.978;8.982;2022-11-28T05:58:09;3.03;95.14
71047;SHT31;58703;48.978;8.982;2022-11-28T06:00:35;2.99;95.28
71047;SHT31;58703;48.978;8.982;2022-11-28T06:03:02;2.93;95.75
71047;SHT31;58703;48.978;8.982;2022-11-28T06:05:28;3.05;95.75
71047;SHT31;58703;48.978;8.982;2022-11-28T06:07:54;3.17;95.92
71047;SHT31;58703;48.978;8.982;2022-11-28T06:10:20;3.03;95.12
71047;SHT31;58703;48.978;8.982;2022-11-28T06:12:47;3.00;95.39
71047;SHT31;58703;48.978;8.982;2022-11-28T06:15:14;2.96;95.27
71047;SHT31;58703;48.978;8.982;2022-11-28T06:17:40;2.91;95.63
71047;SHT31;58703;48.978;8.982;2022-11-28T06:20:06;2.90;95.76
71047;SHT31;58703;48.978;8.982;2022-11-28T06:22:34;2.87;95.72
71047;SHT31;58703;48.978;8.982;2022-11-28T06:25:00;2.86;95.86
71047;SHT31;58703;48.978;8.982;2022-11-28T06:27:27;2.76;96.37
71047;SHT31;58703;48.978;8.982;2022-11-28T06:29:53;2.86;96.32
71047;SHT31;58703;48.978;8.982;2022-11-28T06:32:18;2.83;96.26
71047;SHT31;58703;48.978;8.982;2022-11-28T06:34:44;2.80;96.54
71047;SHT31;58703;48.978;8.982;2022-11-28T06:37:09;2.86;96.52
71047;SHT31;58703;48.978;8.982;2022-11-28T06:39:35;2.93;96.35
71047;SHT31;58703;48.978;8.982;2022-11-28T06:42:02;2.97;95.93
71047;SHT31;58703;48.978;8.982;2022-11-28T06:44:27;2.86;96.16
71047;SHT31;58703;48.978;8.982;2022-11-28T06:46:54;2.83;96.36
71047;SHT31;58703;48.978;8.982;2022-11-28T06:49:20;2.86;96.43
71047;SHT31;58703;48.978;8.982;2022-11-28T06:51:45;2.86;96.15
71047;SHT31;58703;48.978;8.982;2022-11-28T06:54:11;2.81;96.31
71047;SHT31;58703;48.978;8.982;2022-11-28T06:56:39;2.79;96.14
71047;SHT31;58703;48.978;8.982;2022-11-28T06:59:06;2.83;95.88
71047;SHT31;58703;48.978;8.982;2022-11-28T07:01:31;2.84;95.71
71047;SHT31;58703;48.978;8.982;2022-11-28T07:03:58;2.84;95.84
71047;SHT31;58703;48.978;8.982;2022-11-28T07:06:25;2.87;95.75
71047;SHT31;58703;48.978;8.982;2022-11-28T07:08:52;2.87;95.67
71047;SHT31;58703;48.978;8.982;2022-11-28T07:11:26;2.93;95.60
71047;SHT31;58703;48.978;8.982;2022-11-28T07:13:53;2.91;95.75
71047;SHT31;58703;48.978;8.982;2022-11-28T07:16:25;2.93;95.40
71047;SHT31;58703;48.978;8.982;2022-11-28T07:18:52;2.99;95.06
71047;SHT31;58703;48.978;8.982;2022-11-28T07:21:18;2.99;95.12
71047;SHT31;58703;48.978;8.982;2022-11-28T07:23:45;3.04;95.33
71047;SHT31;58703;48.978;8.982;2022-11-28T07:26:12;3.01;94.99
71047;SHT31;58703;48.978;8.982;2022-11-28T07:28:40;3.08;94.89
71047;SHT31;58703;48.978;8.982;2022-11-28T07:31:12;3.12;94.54
71047;SHT31;58703;48.978;8.982;2022-11-28T07:33:39;3.14;94.41
71047;SHT31;58703;48.978;8.982;2022-11-28T07:36:09;3.15;94.27
71047;SHT31;58703;48.978;8.982;2022-11-28T07:38:35;3.14;94.48
71047;SHT31;58703;48.978;8.982;2022-11-28T07:41:06;3.15;94.56
71047;SHT31;58703;48.978;8.982;2022-11-28T07:43:32;3.25;95.76
71047;SHT31;58703;48.978;8.982;2022-11-28T07:46:02;3.41;95.22
71047;SHT31;58703;48.978;8.982;2022-11-28T07:48:28;3.52;94.67
71047;SHT31;58703;48.978;8.982;2022-11-28T07:50:53;3.36;94.20
71047;SHT31;58703;48.978;8.982;2022-11-28T07:53:19;3.46;94.07
71047;SHT31;58703;48.978;8.982;2022-11-28T07:55:44;3.55;94.11
71047;SHT31;58703;48.978;8.982;2022-11-28T07:58:10;3.41;93.93
71047;SHT31;58703;48.978;8.982;2022-11-28T08:00:37;3.35;94.17
71047;SHT31;58703;48.978;8.982;2022-11-28T08:03:02;3.31;94.42
71047;SHT31;58703;48.978;8.982;2022-11-28T08:05:28;3.28;94.09
71047;SHT31;58703;48.978;8.982;2022-11-28T08:07:54;3.32;94.32
71047;SHT31;58703;48.978;8.982;2022-11-28T08:10:19;3.41;93.81
71047;SHT31;58703;48.978;8.982;2022-11-28T08:12:46;3.46;93.77
71047;SHT31;58703;48.978;8.982;2022-11-28T08:15:13;3.51;93.53
71047;SHT31;58703;48.978;8.982;2022-11-28T08:17:40;3.73;93.76
71047;SHT31;58703;48.978;8.982;2022-11-28T08:20:06;3.79;92.54
71047;SHT31;58703;48.978;8.982;2022-11-28T08:22:32;3.71;92.74
71047;SHT31;58703;48.978;8.982;2022-11-28T08:24:57;3.71;92.62
71047;SHT31;58703;48.978;8.982;2022-11-28T08:27:23;3.75;92.66
71047;SHT31;58703;48.978;8.982;2022-11-28T08:29:48;3.85;92.45
71047;SHT31;58703;48.978;8.982;2022-11-28T08:32:15;3.79;92.55
71047;SHT31;58703;48.978;8.982;2022-11-28T08:34:41;3.81;92.57
71047;SHT31;58703;48.978;8.982;2022-11-28T08:37:06;3.93;92.81
71047;SHT31;58703;48.978;8.982;2022-11-28T08:39:32;3.90;92.63
71047;SHT31;58703;48.978;8.982;2022-11-28T08:41:58;3.96;92.97
71047;SHT31;58703;48.978;8.982;2022-11-28T08:44:25;4.05;93.35
71047;SHT31;58703;48.978;8.982;2022-11-28T08:46:51;4.18;93.56
71047;SHT31;58703;48.978;8.982;2022-11-28T08:49:19;4.46;91.75
71047;SHT31;58703;48.978;8.982;2022-11-28T08:51:45;4.47;90.27
71047;SHT31;58703;48.978;8.982;2022-11-28T08:54:10;4.51;91.80
71047;SHT31;58703;48.978;8.982;2022-11-28T08:56:36;4.48;90.80
71047;SHT31;58703;48.978;8.982;2022-11-28T08:59:02;4.40;91.20
71047;SHT31;58703;48.978;8.982;2022-11-28T09:01:27;4.37;91.08
71047;SHT31;58703;48.978;8.982;2022-11-28T09:03:55;4.27;91.57
71047;SHT31;58703;48.978;8.982;2022-11-28T09:06:22;4.18;92.64
71047;SHT31;58703;48.978;8.982;2022-11-28T09:08:48;4.23;92.32
71047;SHT31;58703;48.978;8.982;2022-11-28T09:11:18;4.33;92.32
71047;SHT31;58703;48.978;8.982;2022-11-28T09:13:44;4.44;92.51
71047;SHT31;58703;48.978;8.982;2022-11-28T09:16:11;4.50;91.73
71047;SHT31;58703;48.978;8.982;2022-11-28T09:18:37;4.82;91.94
71047;SHT31;58703;48.978;8.982;2022-11-28T09:21:06;5.04;90.63
71047;SHT31;58703;48.978;8.982;2022-11-28T09:23:38;4.89;91.45
71047;SHT31;58703;48.978;8.982;2022-11-28T09:26:17;4.98;91.14
71047;SHT31;58703;48.978;8.982;2022-11-28T09:28:44;5.19;89.82
71047;SHT31;58703;48.978;8.982;2022-11-28T09:31:11;5.35;90.19
71047;SHT31;58703;48.978;8.982;2022-11-28T09:33:37;5.36;88.71
71047;SHT31;58703;48.978;8.982;2022-11-28T09:36:23;5.19;89.55
71047;SHT31;58703;48.978;8.982;2022-11-28T09:38:49;4.98;89.56
71047;SHT31;58703;48.978;8.982;2022-11-28T09:41:51;5.07;90.10
71047;SHT31;58703;48.978;8.982;2022-11-28T09:47:25;5.07;89.91
71047;SHT31;58703;48.978;8.982;2022-11-28T09:50:00;5.19;88.33
71047;SHT31;58703;48.978;8.982;2022-11-28T09:52:52;5.23;88.36
71047;SHT31;58703;48.978;8.982;2022-11-28T09:58:26;5.36;88.46
71047;SHT31;58703;48.978;8.982;2022-11-28T10:01:03;5.81;87.44
71047;SHT31;58703;48.978;8.982;2022-11-28T10:04:01;5.73;86.28
71047;SHT31;58703;48.978;8.982;2022-11-28T10:15:32;5.83;87.12
71047;SHT31;58703;48.978;8.982;2022-11-28T10:20:30;6.20;87.17
71047;SHT31;58703;48.978;8.982;2022-11-28T10:25:46;6.59;85.00
71047;SHT31;58703;48.978;8.982;2022-11-28T10:28:36;6.35;87.03
71047;SHT31;58703;48.978;8.982;2022-11-28T10:31:04;6.48;86.00
71047;SHT31;58703;48.978;8.982;2022-11-28T10:33:47;6.65;85.42
71047;SHT31;58703;48.978;8.982;2022-11-28T10:36:21;6.69;86.82
71047;SHT31;58703;48.978;8.982;2022-11-28T10:38:50;6.49;87.06
71047;SHT31;58703;48.978;8.982;2022-11-28T10:41:16;6.42;86.43
71047;SHT31;58703;48.978;8.982;2022-11-28T10:52:13;7.06;84.66
71047;SHT31;58703;48.978;8.982;2022-11-28T11:00:26;7.10;87.97
71047;SHT31;58703;48.978;8.982;2022-11-28T11:02:54;7.17;91.33
71047;SHT31;58703;48.978;8.982;2022-11-28T11:05:23;6.87;88.25
71047;SHT31;58703;48.978;8.982;2022-11-28T11:07:55;6.86;89.42
71047;SHT31;58703;48.978;8.982;2022-11-28T11:10:31;6.66;88.00
71047;SHT31;58703;48.978;8.982;2022-11-28T11:12:58;6.79;91.28
71047;SHT31;58703;48.978;8.982;2022-11-28T11:15:33;7.18;88.78
71047;SHT31;58703;48.978;8.982;2022-11-28T11:18:03;7.34;88.69
71047;SHT31;58703;48.978;8.982;2022-11-28T11:20:34;7.17;88.85
71047;SHT31;58703;48.978;8.982;2022-11-28T11:23:11;7.03;90.54
71047;SHT31;58703;48.978;8.982;2022-11-28T11:25:45;6.77;90.75
71047;SHT31;58703;48.978;8.982;2022-11-28T11:28:46;7.00;90.74
71047;SHT31;58703;48.978;8.982;2022-11-28T11:33:41;7.14;90.10
71047;SHT31;58703;48.978;8.982;2022-11-28T11:36:21;7.14;90.46
71047;SHT31;58703;48.978;8.982;2022-11-28T11:38:47;7.23;90.25
71047;SHT31;58703;48.978;8.982;2022-11-28T11:41:26;7.38;90.96
71047;SHT31;58703;48.978;8.982;2022-11-28T11:43:55;7.07;89.77
71047;SHT31;58703;48.978;8.982;2022-11-28T11:46:21;7.04;90.55
71047;SHT31;58703;48.978;8.982;2022-11-28T11:48:50;7.21;90.97
71047;SHT31;58703;48.978;8.982;2022-11-28T11:51:29;7.21;89.01
71047;SHT31;58703;48.978;8.982;2022-11-28T11:56:42;7.35;93.01
71047;SHT31;58703;48.978;8.982;2022-11-28T11:59:30;7.50;93.68
71047;SHT31;58703;48.978;8.982;2022-11-28T12:04:50;7.46;91.32
71047;SHT31;58703;48.978;8.982;2022-11-28T12:07:27;7.44;90.78
71047;SHT31;58703;48.978;8.982;2022-11-28T12:09:55;7.48;91.74
71047;SHT31;58703;48.978;8.982;2022-11-28T12:12:24;7.74;93.50
71047;SHT31;58703;48.978;8.982;2022-11-28T12:14:52;7.48;92.82
71047;SHT31;58703;48.978;8.982;2022-11-28T12:22:55;7.54;94.62
71047;SHT31;58703;48.978;8.982;2022-11-28T12:25:35;7.72;96.13
71047;SHT31;58703;48.978;8.982;2022-11-28T12:28:57;7.72;92.66
71047;SHT31;58703;48.978;8.982;2022-11-28T12:37:08;7.72;92.59
71047;SHT31;58703;48.978;8.982;2022-11-28T12:40:02;7.43;91.94
71047;SHT31;58703;48.978;8.982;2022-11-28T12:43:10;7.50;94.26
71047;SHT31;58703;48.978;8.982;2022-11-28T12:46:07;7.26;91.92
71047;SHT31;58703;48.978;8.982;2022-11-28T13:00:05;7.69;93.19
71047;SHT31;58703;48.978;8.982;2022-11-28T13:16:54;7.67;92.27
71047;SHT31;58703;48.978;8.982;2022-11-28T13:22:23;7.68;92.30
71047;SHT31;58703;48.978;8.982;2022-11-28T13:27:40;7.65;93.70
71047;SHT31;58703;48.978;8.982;2022-11-28T13:30:26;7.64;92.50
71047;SHT31;58703;48.978;8.982;2022-11-28T13:35:51;7.93;91.88
71047;SHT31;58703;48.978;8.982;2022-11-28T13:38:47;7.93;91.03
71047;SHT31;58703;48.978;8.982;2022-11-28T13:46:28;7.85;92.12
71047;SHT31;58703;48.978;8.982;2022-11-28T13:48:59;8.02;94.08
71047;SHT31;58703;48.978;8.982;2022-11-28T13:51:31;7.99;92.47
71047;SHT31;58703;48.978;8.982;2022-11-28T13:59:31;8.07;92.45
71047;SHT31;58703;48.978;8.982;2022-11-28T14:02:02;8.02;91.70
71047;SHT31;58703;48.978;8.982;2022-11-28T14:04:30;7.95;91.95
71047;SHT31;58703;48.978;8.982;2022-11-28T14:07:06;7.88;92.99
71047;SHT31;58703;48.978;8.982;2022-11-28T14:20:58;7.68;94.16
71047;SHT31;58703;48.978;8.982;2022-11-28T14:23:33;7.67;94.30
71047;SHT31;58703;48.978;8.982;2022-11-28T14:26:27;7.67;94.75
71047;SHT31;58703;48.978;8.982;2022-11-28T14:28:55;7.62;94.43
71047;SHT31;58703;48.978;8.982;2022-11-28T14:31:37;7.55;94.30
71047;SHT31;58703;48.978;8.982;2022-11-28T14:34:34;7.54;94.85
71047;SHT31;58703;48.978;8.982;2022-11-28T14:39:54;7.48;94.41
71047;SHT31;58703;48.978;8.982;2022-11-28T14:44:56;7.52;94.36
71047;SHT31;58703;48.978;8.982;2022-11-28T14:52:43;7.58;94.31
71047;SHT31;58703;48.978;8.982;2022-11-28T14:55:22;7.65;95.38
71047;SHT31;58703;48.978;8.982;2022-11-28T15:03:24;7.71;95.15
71047;SHT31;58703;48.978;8.982;2022-11-28T15:06:16;7.57;94.74
71047;SHT31;58703;48.978;8.982;2022-11-28T15:14:44;7.41;95.57
71047;SHT31;58703;48.978;8.982;2022-11-28T15:17:12;7.37;95.59
71047;SHT31;58703;48.978;8.982;2022-11-28T15:19:47;7.35;95.87
71047;SHT31;58703;48.978;8.982;2022-11-28T15:22:40;7.31;95.89
71047;SHT31;58703;48.978;8.982;2022-11-28T15:25:27;7.28;95.78
71047;SHT31;58703;48.978;8.982;2022-11-28T15:27:54;7.27;95.84
71047;SHT31;58703;48.978;8.982;2022-11-28T15:30:25;7.20;96.28
71047;SHT31;58703;48.978;8.982;2022-11-28T15:33:00;7.20;96.82
71047;SHT31;58703;48.978;8.982;2022-11-28T15:35:26;7.17;96.56
71047;SHT31;58703;48.978;8.982;2022-11-28T15:37:54;7.13;96.77
71047;SHT31;58703;48.978;8.982;2022-11-28T15:40:26;7.13;96.66
71047;SHT31;58703;48.978;8.982;2022-11-28T15:42:53;7.14;97.04
71047;SHT31;58703;48.978;8.982;2022-11-28T15:45:32;7.11;96.85
71047;SHT31;58703;48.978;8.982;2022-11-28T15:48:01;7.11;97.00
71047;SHT31;58703;48.978;8.982;2022-11-28T15:50:32;7.08;96.95
71047;SHT31;58703;48.978;8.982;2022-11-28T15:53:16;7.06;97.27
71047;SHT31;58703;48.978;8.982;2022-11-28T15:55:42;7.00;97.19
71047;SHT31;58703;48.978;8.982;2022-11-28T15:58:14;7.03;97.81
71047;SHT31;58703;48.978;8.982;2022-11-28T16:00:47;7.00;97.60
71047;SHT31;58703;48.978;8.982;2022-11-28T16:03:18;6.99;97.59
71047;SHT31;58703;48.978;8.982;2022-11-28T16:05:46;6.99;97.41
71047;SHT31;58703;48.978;8.982;2022-11-28T16:08:25;6.96;97.94
71047;SHT31;58703;48.978;8.982;2022-11-28T16:10:51;6.96;97.91
71047;SHT31;58703;48.978;8.982;2022-11-28T16:13:20;6.92;98.20
71047;SHT31;58703;48.978;8.982;2022-11-28T16:15:47;6.90;97.74
71047;SHT31;58703;48.978;8.982;2022-11-28T16:18:14;6.93;97.90
71047;SHT31;58703;48.978;8.982;2022-11-28T16:20:41;6.93;98.13
71047;SHT31;58703;48.978;8.982;2022-11-28T16:23:10;6.92;98.21
71047;SHT31;58703;48.978;8.982;2022-11-28T16:25:39;6.95;98.57
71047;SHT31;58703;48.978;8.982;2022-11-28T16:28:32;6.93;98.67
71047;SHT31;58703;48.978;8.982;2022-11-28T16:30:59;6.93;98.75
71047;SHT31;58703;48.978;8.982;2022-11-28T16:36:19;6.92;98.92
71047;SHT31;58703;48.978;8.982;2022-11-28T16:38:48;6.90;98.76
71047;SHT31;58703;48.978;8.982;2022-11-28T16:41:21;6.90;98.88
71047;SHT31;58703;48.978;8.982;2022-11-28T16:44:10;6.89;98.85
71047;SHT31;58703;48.978;8.982;2022-11-28T16:46:57;6.90;98.81
71047;SHT31;58703;48.978;8.982;2022-11-28T16:49:37;6.85;99.16
71047;SHT31;58703;48.978;8.982;2022-11-28T16:54:41;6.97;99.14
71047;SHT31;58703;48.978;8.982;2022-11-28T16:57:08;6.95;98.98
71047;SHT31;58703;48.978;8.982;2022-11-28T16:59:35;6.99;98.76
71047;SHT31;58703;48.978;8.982;2022-11-28T17:02:02;6.92;99.34
71047;SHT31;58703;48.978;8.982;2022-11-28T17:04:29;6.93;99.15
71047;SHT31;58703;48.978;8.982;2022-11-28T17:06:57;6.93;99.27
71047;SHT31;58703;48.978;8.982;2022-11-28T17:09:23;6.87;99.47
71047;SHT31;58703;48.978;8.982;2022-11-28T17:12:06;6.85;99.43
71047;SHT31;58703;48.978;8.982;2022-11-28T17:14:32;6.87;99.53
71047;SHT31;58703;48.978;8.982;2022-11-28T17:16:59;6.90;99.69
71047;SHT31;58703;48.978;8.982;2022-11-28T17:19:26;6.92;99.80
71047;SHT31;58703;48.978;8.982;2022-11-28T17:21:54;6.92;99.73
71047;SHT31;58703;48.978;8.982;2022-11-28T17:24:22;6.90;99.90
71047;SHT31;58703;48.978;8.982;2022-11-28T17:26:49;6.85;99.85
71047;SHT31;58703;48.978;8.982;2022-11-28T17:29:15;6.83;99.99
71047;SHT31;58703;48.978;8.982;2022-11-28T17:31:42;6.80;99.96
71047;SHT31;58703;48.978;8.982;2022-11-28T17:34:25;6.73;99.99
71047;SHT31;58703;48.978;8.982;2022-11-28T17:36:51;6.68;99.99
71047;SHT31;58703;48.978;8.982;2022-11-28T17:39:18;6.75;99.99
71047;SHT31;58703;48.978;8.982;2022-11-28T17:41:45;6.72;99.99
71047;SHT31;58703;48.978;8.982;2022-11-28T17:44:25;6.71;99.99
71047;SHT31;58703;48.978;8.982;2022-11-28T17:46:53;6.71;99.99
71047;SHT31;58703;48.978;8.982;2022-11-28T17:49:21;6.76;99.99
71047;SHT31;58703;48.978;8.982;2022-11-28T17:51:47;6.79;99.99
71047;SHT31;58703;48.978;8.982;2022-11-28T17:54:14;6.89;99.99
71047;SHT31;58703;48.978;8.982;2022-11-28T17:56:41;6.68;99.99
71047;SHT31;58703;48.978;8.982;2022-11-28T17:59:08;6.64;99.99
71047;SHT31;58703;48.978;8.982;2022-11-28T18:01:34;6.66;99.99
71047;SHT31;58703;48.978;8.982;2022-11-28T18:04:00;6.62;99.99
71047;SHT31;58703;48.978;8.982;2022-11-28T18:06:26;6.75;99.99
71047;SHT31;58703;48.978;8.982;2022-11-28T18:08:52;6.75;99.99
71047;SHT31;58703;48.978;8.982;2022-11-28T18:11:18;6.73;99.99
71047;SHT31;58703;48.978;8.982;2022-11-28T18:13:44;6.77;99.99
71047;SHT31;58703;48.978;8.982;2022-11-28T18:16:12;6.85;99.99
71047;SHT31;58703;48.978;8.982;2022-11-28T18:18:38;6.75;99.99
71047;SHT31;58703;48.978;8.982;2022-11-28T18:21:08;6.77;99.99
71047;SHT31;58703;48.978;8.982;2022-11-28T18:23:38;6.69;99.99
71047;SHT31;58703;48.978;8.982;2022-11-28T18:26:13;6.68;99.99
71047;SHT31;58703;48.978;8.982;2022-11-28T18:28:39;6.68;99.99
71047;SHT31;58703;48.978;8.982;2022-11-28T18:31:15;6.61;99.99
71047;SHT31;58703;48.978;8.982;2022-11-28T18:33:42;6.61;99.99
71047;SHT31;58703;48.978;8.982;2022-11-28T18:36:14;6.64;99.99
71047;SHT31;58703;48.978;8.982;2022-11-28T18:38:40;6.62;99.99
71047;SHT31;58703;48.978;8.982;2022-11-28T18:41:08;6.57;99.99
71047;SHT31;58703;48.978;8.982;2022-11-28T18:43:36;6.61;99.99
71047;SHT31;58703;48.978;8.982;2022-11-28T18:46:09;6.75;99.99
71047;SHT31;58703;48.978;8.982;2022-11-28T18:48:35;6.77;99.99
71047;SHT31;58703;48.978;8.982;2022-11-28T18:51:11;6.69;99.99
71047;SHT31;58703;48.978;8.982;2022-11-28T18:53:38;6.64;99.99
71047;SHT31;58703;48.978;8.982;2022-11-28T18:56:05;6.56;99.99
71047;SHT31;58703;48.978;8.982;2022-11-28T18:58:36;6.49;99.99
71047;SHT31;58703;48.978;8.982;2022-11-28T19:01:13;6.50;99.99
71047;SHT31;58703;48.978;8.982;2022-11-28T19:03:39;6.52;99.99
71047;SHT31;58703;48.978;8.982;2022-11-28T19:06:08;6.56;99.99
71047;SHT31;58703;48.978;8.982;2022-11-28T19:08:36;6.64;99.99
71047;SHT31;58703;48.978;8.982;2022-11-28T19:11:04;6.68;99.99
71047;SHT31;58703;48.978;8.982;2022-11-28T19:13:44;6.69;99.99